This is the latest recevied weather packets stored in our database for station/object KN6WGU. If no packets are shown the sender has not sent any weather packets the latest 1 day(s).
| Time | Temp. | Humidity | Pressure | Rain* | Wind** | Luminosity | Snow |
|---|---|---|---|---|---|---|---|
| 1777999721 | 17.22° C | 73% | 1000.7 hPa | 0 mm | 0.45 m/s, 164° | 74 W/m² | - |
| 1777999417 | 17.22° C | 74% | 1000.7 hPa | 0 mm | 0.89 m/s, 182° | 103 W/m² | - |
| 1777999115 | 17.22° C | 74% | 1000.7 hPa | 0 mm | 1.34 m/s, 198° | 69 W/m² | - |
| 1777998814 | 17.22° C | 74% | 1000.8 hPa | 0 mm | 0.89 m/s, 148° | 91 W/m² | - |
| 1777998512 | 16.67° C | 75% | 1000.8 hPa | 0 mm | 0.45 m/s, 34° | 82 W/m² | - |
| 1777998208 | 16.67° C | 75% | 1000.6 hPa | 0 mm | 0.45 m/s, 115° | 75 W/m² | - |
| 1777997905 | 16.67° C | 75% | 1000.7 hPa | 0 mm | 0.45 m/s, 195° | 96 W/m² | - |
| 1777997602 | 16.67° C | 75% | 1000.4 hPa | 0 mm | 0.45 m/s, 156° | 100 W/m² | - |
| 1777997299 | 16.67° C | 75% | 1000.7 hPa | 0 mm | 0.89 m/s, 169° | 78 W/m² | - |
| 1777996997 | 16.67° C | 75% | 1000.5 hPa | 0 mm | 0.45 m/s, 197° | 52 W/m² | - |
| 1777996693 | 16.67° C | 75% | 1000.4 hPa | 0 mm | 0 m/s | 41 W/m² | - |
| 1777996389 | 17.78° C | 72% | 1000.7 hPa | 0 mm | 1.79 m/s, 336° | 47 W/m² | - |
| 1777996086 | 18.89° C | 66% | 1000.4 hPa | 0 mm | 0.45 m/s, 170° | 51 W/m² | - |
| 1777995782 | 18.89° C | 65% | 1000.3 hPa | 0 mm | 0.45 m/s, 146° | 54 W/m² | - |
| 1777995478 | 18.89° C | 65% | 1000.1 hPa | 0 mm | 0.89 m/s, 194° | 82 W/m² | - |
| 1777995176 | 19.44° C | 64% | 1000.1 hPa | 0 mm | 1.34 m/s, 220° | 71 W/m² | - |
| 1777994873 | 20° C | 64% | 999.8 hPa | 0 mm | 0.89 m/s, 159° | 167 W/m² | - |
| 1777994569 | 19.44° C | 64% | 999.6 hPa | 0 mm | 1.34 m/s, 118° | 223 W/m² | - |
| 1777994263 | 19.44° C | 64% | 999.6 hPa | 0 mm | 1.79 m/s, 154° | 215 W/m² | - |
| 1777993961 | 20° C | 63% | 999.5 hPa | 0 mm | 1.34 m/s, 165° | 200 W/m² | - |
| 1777993659 | 19.44° C | 63% | 999.2 hPa | 0 mm | 0.45 m/s, 155° | 203 W/m² | - |
| 1777993356 | 19.44° C | 63% | 998.9 hPa | 0 mm | 0.45 m/s, 164° | 200 W/m² | - |
| 1777993055 | 19.44° C | 65% | 998.9 hPa | 0 mm | 0.45 m/s, 173° | 197 W/m² | - |
| 1777992754 | 19.44° C | 63% | 999 hPa | 0 mm | 1.79 m/s, 195° | 176 W/m² | - |
| 1777992451 | 19.44° C | 64% | 998.9 hPa | 0 mm | 0.89 m/s, 151° | 178 W/m² | - |
* Rain latest hour (hover to see other rain measurements)
** Current wind speed in m/s (hover to see current wind gust speed)